createdAt,value
2022-11-01T00:04:57.734Z,10.63
2022-11-01T00:10:20.478Z,10.65
2022-11-01T00:15:43.122Z,10.65
2022-11-01T00:21:05.265Z,10.65
2022-11-01T00:26:30.719Z,10.64
2022-11-01T00:31:52.926Z,10.60
2022-11-01T00:37:15.593Z,10.58
2022-11-01T00:42:37.748Z,10.61
2022-11-01T00:48:00.980Z,10.60
2022-11-01T00:53:25.028Z,10.60
2022-11-01T00:58:47.632Z,10.58
2022-11-01T01:04:09.883Z,10.53
2022-11-01T01:09:32.480Z,10.53
2022-11-01T01:14:55.015Z,10.54
2022-11-01T01:20:17.741Z,10.52
2022-11-01T01:25:40.188Z,10.48
2022-11-01T01:31:02.350Z,10.47
2022-11-01T01:36:25.095Z,10.47
2022-11-01T01:41:59.339Z,10.46
2022-11-01T01:47:30.440Z,10.46
2022-11-01T01:53:03.856Z,10.44
2022-11-01T01:58:31.148Z,10.41
2022-11-01T02:03:55.532Z,10.40
2022-11-01T02:09:20.367Z,10.39
2022-11-01T02:14:44.435Z,10.40
2022-11-01T02:20:46.036Z,10.41
2022-11-01T02:26:25.139Z,10.39
2022-11-01T02:32:24.157Z,10.34
2022-11-01T02:38:08.902Z,10.31
2022-11-01T02:43:45.072Z,10.30
2022-11-01T02:49:10.540Z,10.30
2022-11-01T02:54:49.067Z,10.29
2022-11-01T03:00:25.069Z,10.27
2022-11-01T03:05:58.039Z,10.28
2022-11-01T03:11:52.433Z,10.25
2022-11-01T03:17:25.877Z,10.23
2022-11-01T03:22:53.728Z,10.22
2022-11-01T03:28:26.363Z,10.20
2022-11-01T03:34:01.324Z,10.19
2022-11-01T03:39:31.298Z,10.20
2022-11-01T03:44:58.791Z,10.18
2022-11-01T03:50:40.614Z,10.18
2022-11-01T03:56:03.147Z,10.18
2022-11-01T04:01:26.729Z,10.17
2022-11-01T04:06:49.059Z,10.16
2022-11-01T04:12:11.286Z,10.12
2022-11-01T04:17:51.346Z,10.11
2022-11-01T04:23:14.707Z,10.10
2022-11-01T04:28:36.945Z,10.06
2022-11-01T04:33:59.121Z,10.11
2022-11-01T04:39:21.430Z,10.12
2022-11-01T04:44:43.661Z,10.08
2022-11-01T04:50:05.815Z,10.11
2022-11-01T04:55:28.415Z,10.07
2022-11-01T05:00:51.868Z,10.02
2022-11-01T05:06:14.463Z,10.03
2022-11-01T05:11:36.607Z,10.04
2022-11-01T05:17:00.878Z,10.01
2022-11-01T05:22:23.777Z,9.93
2022-11-01T05:27:45.916Z,9.92
2022-11-01T05:33:09.907Z,9.89
2022-11-01T05:38:32.118Z,9.87
2022-11-01T05:43:54.282Z,9.90
2022-11-01T05:49:16.973Z,9.85
2022-11-01T05:54:39.126Z,9.80
2022-11-01T06:00:01.271Z,9.79
2022-11-01T06:05:23.682Z,9.82
2022-11-01T06:10:49.180Z,9.85
2022-11-01T06:16:14.125Z,9.84
2022-11-01T06:21:36.272Z,9.83
2022-11-01T06:26:58.406Z,9.78
2022-11-01T06:32:22.482Z,9.77
2022-11-01T06:37:45.188Z,9.79
2022-11-01T06:43:09.612Z,9.75
2022-11-01T06:48:31.775Z,9.71
2022-11-01T06:53:53.903Z,9.68
2022-11-01T06:59:17.092Z,9.62
2022-11-01T07:04:39.300Z,9.65
2022-11-01T07:10:01.865Z,9.61
2022-11-01T07:15:24.947Z,9.66
2022-11-01T07:20:49.127Z,9.67
2022-11-01T07:26:11.738Z,9.71
2022-11-01T07:31:38.480Z,9.70
2022-11-01T07:37:00.633Z,9.64
2022-11-01T07:42:23.153Z,9.65
2022-11-01T07:47:45.361Z,9.68
2022-11-01T07:53:14.442Z,9.66
2022-11-01T07:58:36.670Z,9.72
2022-11-01T08:03:59.294Z,9.71
2022-11-01T08:09:22.539Z,9.68
2022-11-01T08:14:44.680Z,9.79
2022-11-01T08:20:07.610Z,9.72
2022-11-01T08:25:31.162Z,9.82
2022-11-01T08:30:55.478Z,9.77
2022-11-01T08:36:18.335Z,9.86
2022-11-01T08:41:40.595Z,9.84
2022-11-01T08:47:04.625Z,9.72
2022-11-01T08:52:28.874Z,9.78
2022-11-01T08:57:51.018Z,9.79
2022-11-01T09:03:14.771Z,9.82
2022-11-01T09:08:36.930Z,9.91
2022-11-01T09:13:59.242Z,9.91
2022-11-01T09:19:21.902Z,9.96
2022-11-01T09:24:45.187Z,10.02
2022-11-01T09:30:07.875Z,10.02
2022-11-01T09:35:30.699Z,10.08
2022-11-01T09:41:07.199Z,10.12
2022-11-01T09:46:34.748Z,10.18
2022-11-01T09:51:57.915Z,10.22
2022-11-01T09:57:29.592Z,10.39
2022-11-01T10:03:20.765Z,10.75
2022-11-01T10:08:42.999Z,10.85
2022-11-01T10:14:36.198Z,10.70
2022-11-01T10:20:09.660Z,11.06
2022-11-01T10:25:44.947Z,11.05
2022-11-01T10:31:15.577Z,11.04
2022-11-01T10:36:46.383Z,11.09
2022-11-01T10:42:15.412Z,11.01
2022-11-01T10:47:39.100Z,11.19
2022-11-01T10:58:49.970Z,11.20
2022-11-01T11:04:17.197Z,11.22
2022-11-01T11:09:51.519Z,11.14
2022-11-01T11:15:20.057Z,11.05
2022-11-01T11:20:46.352Z,10.93
2022-11-01T11:26:17.227Z,11.09
2022-11-01T11:31:48.094Z,11.21
2022-11-01T11:37:15.140Z,11.22
2022-11-01T11:42:39.363Z,11.11
2022-11-01T11:48:03.640Z,11.16
2022-11-01T11:53:29.693Z,11.20
2022-11-01T11:58:58.315Z,11.27
2022-11-01T12:04:29.117Z,11.23
2022-11-01T12:10:04.026Z,11.12
2022-11-01T12:15:41.458Z,11.22
2022-11-01T12:21:06.302Z,11.16
2022-11-01T12:26:41.483Z,11.29
2022-11-01T12:32:26.125Z,11.11
2022-11-01T12:38:31.242Z,11.19
2022-11-01T12:44:21.035Z,11.13
2022-11-01T12:50:03.104Z,11.23
2022-11-01T12:55:44.387Z,11.32
2022-11-01T13:01:26.620Z,11.40
2022-11-01T13:12:46.860Z,11.28
2022-11-01T13:18:34.772Z,11.16
2022-11-01T13:24:07.698Z,11.23
2022-11-01T13:30:10.127Z,11.16
2022-11-01T13:36:11.708Z,11.20
2022-11-01T13:41:57.649Z,11.27
2022-11-01T13:47:55.690Z,11.41
2022-11-01T13:53:33.771Z,11.42
2022-11-01T13:58:56.479Z,11.37
2022-11-01T14:04:45.328Z,11.34
2022-11-01T14:10:11.429Z,11.30
2022-11-01T14:15:42.827Z,11.28
2022-11-01T14:21:11.954Z,11.26
2022-11-01T14:26:45.053Z,11.25
2022-11-01T14:32:10.657Z,11.28
2022-11-01T14:37:41.472Z,11.31
2022-11-01T14:43:09.123Z,11.31
2022-11-01T14:48:59.316Z,11.29
2022-11-01T14:54:57.639Z,11.30
2022-11-01T15:00:36.682Z,11.29
2022-11-01T15:11:40.376Z,11.37
2022-11-01T15:17:02.940Z,11.31
2022-11-01T15:22:34.202Z,11.29
2022-11-01T15:28:02.744Z,11.29
2022-11-01T15:33:40.177Z,11.29
2022-11-01T15:39:26.632Z,11.29
2022-11-01T15:44:50.093Z,11.25
2022-11-01T15:50:24.090Z,11.27
2022-11-01T15:55:50.894Z,11.26
2022-11-01T16:01:18.186Z,11.26
2022-11-01T16:06:57.848Z,11.30
2022-11-01T16:12:24.873Z,11.32
2022-11-01T16:18:00.204Z,11.43
2022-11-01T16:23:33.395Z,11.32
2022-11-01T16:28:58.099Z,11.37
2022-11-01T16:34:32.369Z,11.41
2022-11-01T16:39:54.679Z,11.43
2022-11-01T16:45:17.905Z,11.45
2022-11-01T16:50:40.059Z,11.47
2022-11-01T16:56:23.166Z,11.49
2022-11-01T17:01:35.879Z,11.50
2022-11-01T17:06:59.014Z,11.51
2022-11-01T17:12:22.323Z,11.52
2022-11-01T17:17:44.995Z,11.52
2022-11-01T17:23:09.305Z,11.53
2022-11-01T17:28:32.657Z,11.55
2022-11-01T17:33:55.047Z,11.55
2022-11-01T17:39:17.904Z,11.56
2022-11-01T17:44:40.609Z,11.56
2022-11-01T17:50:02.875Z,11.57
2022-11-01T17:55:26.127Z,11.58
2022-11-01T18:00:50.233Z,11.58
2022-11-01T18:06:16.928Z,11.56
2022-11-01T18:12:10.847Z,11.55
2022-11-01T18:18:02.885Z,11.54
2022-11-01T18:23:37.478Z,11.65
2022-11-01T18:29:10.466Z,11.53
2022-11-01T18:34:47.348Z,11.54
2022-11-01T18:46:23.330Z,11.56
2022-11-01T18:57:17.773Z,11.46
2022-11-01T19:02:41.548Z,11.30
2022-11-01T19:08:10.923Z,11.25
2022-11-01T19:13:40.481Z,11.28
2022-11-01T19:19:03.759Z,11.27
2022-11-01T19:24:40.088Z,11.22
2022-11-01T19:30:03.700Z,11.22
2022-11-01T19:35:29.128Z,11.22
2022-11-01T19:40:55.662Z,11.21
2022-11-01T19:46:18.856Z,11.19
2022-11-01T19:51:42.897Z,11.22
2022-11-01T19:57:06.620Z,11.21
2022-11-01T20:02:36.487Z,11.22
2022-11-01T20:08:00.454Z,11.26
2022-11-01T20:13:23.226Z,11.28
2022-11-01T20:18:45.554Z,11.31
2022-11-01T20:24:08.312Z,11.34
2022-11-01T20:29:30.506Z,11.37
2022-11-01T20:34:53.166Z,11.38
2022-11-01T20:40:15.690Z,11.38
2022-11-01T20:45:38.481Z,11.41
2022-11-01T20:51:01.398Z,11.43
2022-11-01T20:56:23.806Z,11.45
2022-11-01T21:01:46.147Z,11.47
2022-11-01T21:07:09.262Z,11.50
2022-11-01T21:13:01.172Z,11.51
2022-11-01T21:18:33.098Z,11.52
2022-11-01T21:23:57.803Z,11.51
2022-11-01T21:29:40.418Z,11.51
2022-11-01T21:35:09.792Z,11.52
2022-11-01T21:40:41.109Z,11.55
2022-11-01T21:46:04.853Z,11.56
2022-11-01T21:51:27.100Z,11.57
2022-11-01T21:56:49.253Z,11.59
2022-11-01T22:02:14.017Z,11.60
2022-11-01T22:07:36.426Z,11.62
2022-11-01T22:13:02.880Z,11.63
2022-11-01T22:18:25.106Z,11.62
2022-11-01T22:23:46.342Z,11.60
2022-11-01T22:29:08.665Z,11.58
2022-11-01T22:34:31.234Z,11.54
2022-11-01T22:39:53.921Z,11.46
2022-11-01T22:45:23.571Z,11.44
2022-11-01T22:50:47.678Z,11.35
2022-11-01T22:56:12.077Z,11.33
2022-11-01T23:01:36.116Z,11.30
2022-11-01T23:07:02.082Z,11.25
2022-11-01T23:12:46.639Z,11.25
2022-11-01T23:18:32.413Z,11.20
2022-11-01T23:23:57.634Z,11.15
2022-11-01T23:29:20.929Z,11.19
2022-11-01T23:34:44.723Z,11.22
2022-11-01T23:40:07.035Z,11.25
2022-11-01T23:45:39.375Z,11.31
2022-11-01T23:51:03.155Z,11.34
2022-11-01T23:56:27.566Z,11.34
